createdAt,value
2022-09-03T00:02:21.497Z,20.33
2022-09-03T00:04:57.324Z,20.24
2022-09-03T00:07:31.332Z,20.28
2022-09-03T00:10:03.582Z,20.38
2022-09-03T00:12:35.906Z,20.28
2022-09-03T00:15:07.481Z,20.31
2022-09-03T00:17:39.692Z,20.22
2022-09-03T00:20:12.739Z,20.29
2022-09-03T00:22:42.255Z,20.21
2022-09-03T00:25:14.610Z,20.16
2022-09-03T00:27:45.335Z,20.17
2022-09-03T00:30:17.262Z,20.17
2022-09-03T00:32:48.792Z,20.20
2022-09-03T00:35:18.939Z,20.14
2022-09-03T00:37:46.858Z,20.24
2022-09-03T00:40:34.692Z,20.16
2022-09-03T00:43:07.167Z,20.23
2022-09-03T00:45:39.436Z,20.26
2022-09-03T00:48:17.480Z,20.17
2022-09-03T00:51:00.262Z,20.18
2022-09-03T00:53:34.738Z,20.16
2022-09-03T00:56:12.122Z,20.22
2022-09-03T00:58:48.737Z,20.20
2022-09-03T01:01:21.898Z,20.13
2022-09-03T01:03:59.579Z,20.14
2022-09-03T01:06:34.252Z,20.10
2022-09-03T01:09:13.984Z,20.15
2022-09-03T01:11:54.654Z,20.13
2022-09-03T01:14:32.184Z,20.05
2022-09-03T01:17:04.319Z,20.07
2022-09-03T01:19:53.244Z,20.01
2022-09-03T01:22:38.561Z,20.01
2022-09-03T01:25:17.670Z,20.00
2022-09-03T01:28:03.061Z,20.03
2022-09-03T01:30:32.799Z,20.03
2022-09-03T01:33:04.456Z,19.94
2022-09-03T01:35:36.130Z,19.85
2022-09-03T01:38:13.817Z,19.79
2022-09-03T01:40:48.187Z,19.77
2022-09-03T01:43:37.943Z,19.48
2022-09-03T01:46:14.043Z,19.51
2022-09-03T01:48:47.463Z,19.47
2022-09-03T01:51:21.051Z,19.38
2022-09-03T01:54:04.798Z,19.31
2022-09-03T01:56:43.769Z,19.33
2022-09-03T01:59:21.242Z,19.21
2022-09-03T02:01:56.895Z,19.20
2022-09-03T02:04:27.085Z,19.19
2022-09-03T02:06:57.483Z,19.12
2022-09-03T02:09:30.850Z,19.06
2022-09-03T02:12:04.784Z,18.98
2022-09-03T02:14:34.048Z,18.98
2022-09-03T02:17:03.413Z,18.88
2022-09-03T02:19:31.647Z,18.82
2022-09-03T02:21:59.618Z,18.54
2022-09-03T02:24:28.962Z,18.44
2022-09-03T02:26:57.555Z,18.42
2022-09-03T02:29:25.866Z,18.28
2022-09-03T02:31:56.927Z,18.20
2022-09-03T02:34:24.994Z,18.01
2022-09-03T02:36:54.552Z,18.12
2022-09-03T02:39:22.435Z,18.12
2022-09-03T02:41:52.919Z,18.03
2022-09-03T02:44:27.247Z,18.10
2022-09-03T02:47:00.304Z,17.89
2022-09-03T02:49:28.644Z,17.90
2022-09-03T02:52:00.856Z,17.77
2022-09-03T02:54:29.242Z,17.82
2022-09-03T02:56:57.142Z,17.81
2022-09-03T02:59:25.128Z,17.73
2022-09-03T03:01:52.998Z,17.72
2022-09-03T03:04:23.558Z,17.69
2022-09-03T03:06:51.740Z,17.60
2022-09-03T03:09:19.900Z,17.53
2022-09-03T03:11:50.609Z,17.40
2022-09-03T03:14:18.566Z,17.39
2022-09-03T03:16:46.570Z,17.36
2022-09-03T03:19:14.452Z,17.53
2022-09-03T03:21:43.927Z,17.64
2022-09-03T03:24:12.195Z,17.64
2022-09-03T03:26:40.269Z,17.65
2022-09-03T03:29:08.212Z,17.69
2022-09-03T03:31:36.202Z,17.75
2022-09-03T03:34:04.669Z,17.67
2022-09-03T03:36:34.030Z,17.72
2022-09-03T03:39:03.615Z,17.70
2022-09-03T03:41:34.266Z,17.64
2022-09-03T03:44:03.723Z,17.68
2022-09-03T03:46:33.253Z,17.62
2022-09-03T03:49:01.391Z,17.68
2022-09-03T03:51:30.453Z,17.69
2022-09-03T03:54:04.333Z,17.61
2022-09-03T03:56:35.344Z,17.47
2022-09-03T03:59:03.681Z,17.39
2022-09-03T04:01:31.727Z,17.28
2022-09-03T04:04:01.040Z,17.41
2022-09-03T04:06:29.638Z,17.32
2022-09-03T04:08:57.647Z,17.23
2022-09-03T04:11:26.176Z,17.28
2022-09-03T04:13:55.650Z,17.26
2022-09-03T04:16:24.824Z,17.28
2022-09-03T04:18:53.766Z,17.28
2022-09-03T04:21:23.187Z,17.33
2022-09-03T04:23:52.436Z,17.21
2022-09-03T04:26:22.679Z,17.22
2022-09-03T04:28:50.647Z,17.22
2022-09-03T04:31:21.469Z,17.20
2022-09-03T04:33:49.699Z,17.19
2022-09-03T04:36:19.365Z,17.27
2022-09-03T04:38:48.577Z,17.13
2022-09-03T04:41:18.370Z,17.17
2022-09-03T04:43:51.520Z,17.13
2022-09-03T04:46:22.418Z,16.94
2022-09-03T04:48:52.226Z,16.85
2022-09-03T04:51:22.006Z,16.66
2022-09-03T04:53:55.627Z,16.53
2022-09-03T04:56:24.945Z,16.46
2022-09-03T04:58:56.431Z,16.44
2022-09-03T05:01:27.224Z,16.33
2022-09-03T05:03:56.614Z,16.06
2022-09-03T05:06:25.609Z,16.11
2022-09-03T05:08:54.757Z,16.02
2022-09-03T05:11:23.589Z,15.93
2022-09-03T05:13:52.573Z,15.95
2022-09-03T05:16:21.006Z,16.00
2022-09-03T05:18:54.057Z,16.17
2022-09-03T05:21:22.705Z,16.23
2022-09-03T05:23:51.531Z,16.25
2022-09-03T05:26:21.021Z,16.18
2022-09-03T05:28:49.292Z,16.14
2022-09-03T05:31:19.168Z,16.18
2022-09-03T05:33:48.331Z,16.30
2022-09-03T05:36:19.177Z,16.44
2022-09-03T05:38:48.532Z,16.43
2022-09-03T05:41:18.997Z,16.66
2022-09-03T05:43:52.449Z,16.67
2022-09-03T05:46:20.444Z,16.69
2022-09-03T05:48:48.636Z,16.99
2022-09-03T05:51:20.401Z,17.06
2022-09-03T05:53:50.164Z,16.98
2022-09-03T05:56:19.669Z,17.02
2022-09-03T05:58:48.887Z,17.11
2022-09-03T06:01:18.302Z,17.26
2022-09-03T06:03:47.549Z,17.42
2022-09-03T06:06:17.428Z,17.51
2022-09-03T06:08:45.401Z,17.59
2022-09-03T06:11:13.330Z,17.67
2022-09-03T06:13:41.401Z,17.90
2022-09-03T06:16:09.586Z,18.09
2022-09-03T06:18:37.563Z,18.34
2022-09-03T06:21:07.470Z,18.49
2022-09-03T06:23:37.256Z,18.68
2022-09-03T06:26:09.012Z,18.77
2022-09-03T06:28:40.528Z,18.90
2022-09-03T06:31:09.869Z,18.98
2022-09-03T06:33:39.406Z,18.99
2022-09-03T06:36:09.081Z,19.00
2022-09-03T06:38:39.463Z,19.31
2022-09-03T06:41:09.276Z,19.43
2022-09-03T06:43:38.622Z,19.68
2022-09-03T06:46:08.646Z,19.82
2022-09-03T06:48:38.305Z,19.72
2022-09-03T06:51:08.293Z,19.85
2022-09-03T06:53:39.165Z,19.99
2022-09-03T06:56:08.522Z,20.19
2022-09-03T06:58:42.913Z,20.56
2022-09-03T07:01:12.861Z,20.80
2022-09-03T07:03:42.252Z,20.80
2022-09-03T07:06:11.646Z,21.19
2022-09-03T07:08:42.497Z,21.26
2022-09-03T07:11:11.945Z,21.34
2022-09-03T07:13:41.768Z,21.43
2022-09-03T07:16:11.093Z,21.24
2022-09-03T07:18:39.273Z,21.25
2022-09-03T07:21:09.412Z,21.52
2022-09-03T07:23:38.840Z,21.40
2022-09-03T07:26:10.470Z,21.97
2022-09-03T07:28:39.933Z,21.91
2022-09-03T07:31:10.678Z,21.79
2022-09-03T07:33:38.898Z,22.13
2022-09-03T07:36:09.032Z,22.42
2022-09-03T07:38:38.025Z,22.37
2022-09-03T07:41:09.016Z,22.33
2022-09-03T07:43:40.040Z,22.33
2022-09-03T07:46:08.574Z,22.53
2022-09-03T07:48:37.724Z,22.40
2022-09-03T07:51:05.881Z,22.66
2022-09-03T07:53:34.246Z,22.97
2022-09-03T07:56:08.534Z,23.05
2022-09-03T07:58:37.371Z,23.09
2022-09-03T08:01:09.016Z,23.00
2022-09-03T08:03:41.403Z,22.82
2022-09-03T08:06:09.661Z,22.90
2022-09-03T08:08:38.414Z,23.22
2022-09-03T08:11:10.985Z,23.23
2022-09-03T08:13:40.836Z,23.22
2022-09-03T08:16:09.539Z,22.98
2022-09-03T08:18:39.426Z,22.69
2022-09-03T08:21:09.198Z,22.88
2022-09-03T08:23:38.991Z,23.08
2022-09-03T08:26:08.701Z,22.88
2022-09-03T08:28:36.840Z,23.09
2022-09-03T08:31:10.132Z,23.22
2022-09-03T08:33:38.384Z,23.76
2022-09-03T08:36:07.889Z,24.28
2022-09-03T08:38:36.757Z,24.84
2022-09-03T08:41:08.528Z,25.42
2022-09-03T08:43:42.754Z,25.83
2022-09-03T08:46:10.686Z,25.85
2022-09-03T08:48:38.524Z,25.64
2022-09-03T08:51:07.875Z,25.43
2022-09-03T08:53:45.289Z,25.43
2022-09-03T08:56:20.825Z,25.28
2022-09-03T08:58:48.872Z,25.46
2022-09-03T09:01:27.877Z,25.67
2022-09-03T09:04:04.073Z,25.53
2022-09-03T09:06:37.051Z,25.32
2022-09-03T09:09:11.733Z,25.62
2022-09-03T09:11:49.527Z,26.09
2022-09-03T09:14:21.497Z,26.47
2022-09-03T09:16:57.275Z,26.81
2022-09-03T09:19:36.924Z,26.86
2022-09-03T09:22:09.581Z,27.31
2022-09-03T09:24:41.518Z,27.25
2022-09-03T09:27:15.404Z,27.42
2022-09-03T09:29:45.434Z,27.60
2022-09-03T09:32:15.768Z,27.55
2022-09-03T09:34:44.938Z,27.57
2022-09-03T09:37:17.193Z,27.63
2022-09-03T09:39:56.824Z,27.25
2022-09-03T09:42:26.255Z,27.55
2022-09-03T09:44:54.515Z,27.71
2022-09-03T09:47:25.517Z,27.90
2022-09-03T09:49:55.949Z,28.06
2022-09-03T09:52:26.171Z,27.89
2022-09-03T09:54:55.912Z,27.58
2022-09-03T09:57:26.532Z,27.81
2022-09-03T10:00:06.772Z,27.99
2022-09-03T10:02:42.397Z,27.93
2022-09-03T10:05:15.966Z,28.03
2022-09-03T10:07:44.126Z,28.05
2022-09-03T10:10:19.597Z,28.34
2022-09-03T10:12:52.611Z,28.26
2022-09-03T10:15:25.110Z,28.22
2022-09-03T10:18:03.430Z,28.51
2022-09-03T10:20:37.352Z,29.06
2022-09-03T10:23:14.789Z,28.98
2022-09-03T10:25:56.032Z,29.13
2022-09-03T10:28:28.321Z,29.21
2022-09-03T10:31:11.747Z,29.39
2022-09-03T10:33:42.709Z,29.36
2022-09-03T10:36:15.507Z,28.65
2022-09-03T10:38:44.538Z,28.56
2022-09-03T10:41:24.283Z,28.82
2022-09-03T10:44:20.557Z,29.38
2022-09-03T10:46:58.392Z,29.78
2022-09-03T10:49:36.676Z,30.13
2022-09-03T10:52:11.062Z,30.62
2022-09-03T10:54:49.480Z,31.30
2022-09-03T10:57:28.454Z,31.75
2022-09-03T11:00:08.649Z,32.36
2022-09-03T11:03:12.744Z,31.55
2022-09-03T11:05:43.783Z,30.19
2022-09-03T11:08:13.825Z,29.92
2022-09-03T11:10:43.577Z,29.96
2022-09-03T11:13:14.427Z,30.57
2022-09-03T11:15:46.932Z,31.32
2022-09-03T11:18:19.209Z,32.11
2022-09-03T11:20:49.313Z,32.34
2022-09-03T11:23:18.480Z,31.19
2022-09-03T11:25:51.321Z,30.37
2022-09-03T11:28:29.461Z,31.50
2022-09-03T11:31:13.710Z,32.39
2022-09-03T11:33:43.939Z,31.75
2022-09-03T11:36:12.250Z,31.79
2022-09-03T11:38:40.522Z,31.69
2022-09-03T11:41:14.336Z,31.49
2022-09-03T11:43:43.941Z,30.43
2022-09-03T11:46:15.884Z,30.32
2022-09-03T11:48:45.422Z,30.45
2022-09-03T11:51:33.344Z,30.53
2022-09-03T11:54:02.524Z,30.71
2022-09-03T11:56:31.489Z,30.85
2022-09-03T11:59:19.025Z,30.48
2022-09-03T12:01:53.331Z,30.25
2022-09-03T12:04:24.954Z,30.37
2022-09-03T12:07:14.268Z,30.16
2022-09-03T12:10:14.301Z,29.90
2022-09-03T12:12:49.971Z,30.80
2022-09-03T12:15:26.721Z,30.47
2022-09-03T12:18:12.078Z,29.92
2022-09-03T12:20:40.342Z,28.76
2022-09-03T12:23:08.875Z,28.28
2022-09-03T12:25:37.921Z,27.79
2022-09-03T12:28:13.741Z,27.33
2022-09-03T12:30:41.702Z,27.38
2022-09-03T12:33:14.851Z,27.50
2022-09-03T12:35:58.878Z,27.87
2022-09-03T12:38:27.619Z,27.79
2022-09-03T12:43:52.693Z,29.64
2022-09-03T12:46:24.690Z,30.84
2022-09-03T12:52:04.743Z,32.28
2022-09-03T12:54:34.160Z,32.62
2022-09-03T12:57:02.418Z,32.81
2022-09-03T12:59:34.011Z,33.47
2022-09-03T13:02:03.894Z,34.36
2022-09-03T13:04:35.714Z,33.88
2022-09-03T13:07:06.262Z,34.69
2022-09-03T13:09:35.901Z,35.06
2022-09-03T13:12:05.821Z,35.56
2022-09-03T13:14:43.848Z,34.53
2022-09-03T13:17:25.401Z,35.51
2022-09-03T13:20:11.073Z,36.09
2022-09-03T13:22:45.906Z,36.69
2022-09-03T13:25:17.515Z,36.84
2022-09-03T13:27:53.614Z,36.32
2022-09-03T13:30:23.245Z,34.68
2022-09-03T13:32:58.072Z,35.49
2022-09-03T13:35:33.593Z,35.49
2022-09-03T13:38:09.010Z,34.24
2022-09-03T13:40:39.296Z,35.55
2022-09-03T13:43:22.324Z,35.54
2022-09-03T13:45:56.061Z,35.55
2022-09-03T13:48:44.834Z,34.79
2022-09-03T13:51:17.521Z,33.32
2022-09-03T13:53:52.656Z,35.28
2022-09-03T13:56:31.088Z,36.65
2022-09-03T13:59:07.053Z,37.42
2022-09-03T14:01:44.691Z,36.70
2022-09-03T14:04:20.101Z,36.03
2022-09-03T14:06:56.360Z,34.79
2022-09-03T14:09:33.987Z,34.17
2022-09-03T14:12:06.596Z,33.28
2022-09-03T14:14:42.865Z,31.56
2022-09-03T14:17:14.940Z,30.68
2022-09-03T14:19:48.672Z,31.19
2022-09-03T14:22:22.173Z,31.04
2022-09-03T14:24:52.569Z,31.66
2022-09-03T14:27:30.782Z,31.77
2022-09-03T14:30:01.816Z,31.79
2022-09-03T14:32:32.196Z,31.15
2022-09-03T14:35:14.176Z,31.33
2022-09-03T14:37:58.904Z,31.58
2022-09-03T14:40:30.830Z,29.93
2022-09-03T14:43:10.733Z,29.64
2022-09-03T14:45:53.867Z,29.50
2022-09-03T14:48:33.962Z,29.21
2022-09-03T14:51:17.709Z,29.01
2022-09-03T14:54:33.625Z,29.13
2022-09-03T14:57:13.276Z,28.96
2022-09-03T14:59:57.383Z,29.33
2022-09-03T15:02:51.373Z,29.88
2022-09-03T15:05:29.368Z,29.65
2022-09-03T15:08:00.441Z,29.70
2022-09-03T15:10:36.434Z,29.81
2022-09-03T15:13:11.810Z,29.22
2022-09-03T15:15:52.650Z,29.66
2022-09-03T15:18:27.209Z,29.50
2022-09-03T15:20:56.152Z,29.65
2022-09-03T15:23:49.855Z,29.75
2022-09-03T15:26:33.513Z,29.70
2022-09-03T15:29:28.669Z,29.84
2022-09-03T15:32:02.081Z,29.75
2022-09-03T15:34:55.250Z,29.32
2022-09-03T15:37:27.114Z,29.38
2022-09-03T15:40:02.179Z,29.45
2022-09-03T15:42:32.173Z,29.42
2022-09-03T15:45:05.200Z,29.43
2022-09-03T15:47:50.719Z,29.19
2022-09-03T15:50:30.177Z,29.17
2022-09-03T15:53:03.720Z,29.41
2022-09-03T15:55:37.109Z,29.31
2022-09-03T15:58:14.352Z,29.16
2022-09-03T16:00:54.122Z,29.22
2022-09-03T16:03:34.585Z,29.00
2022-09-03T16:06:05.615Z,28.91
2022-09-03T16:08:39.655Z,29.05
2022-09-03T16:11:10.155Z,29.14
2022-09-03T16:13:51.906Z,29.05
2022-09-03T16:16:25.075Z,28.77
2022-09-03T16:19:02.176Z,28.63
2022-09-03T16:21:36.667Z,28.26
2022-09-03T16:24:06.960Z,28.24
2022-09-03T16:26:37.742Z,28.19
2022-09-03T16:29:10.794Z,28.41
2022-09-03T16:31:50.970Z,28.08
2022-09-03T16:34:26.479Z,28.05
2022-09-03T16:37:00.547Z,28.01
2022-09-03T16:39:37.916Z,27.96
2022-09-03T16:42:12.722Z,28.11
2022-09-03T16:44:51.941Z,28.09
2022-09-03T16:47:28.205Z,28.14
2022-09-03T16:50:04.592Z,28.25
2022-09-03T16:52:42.469Z,28.23
2022-09-03T16:55:21.353Z,28.17
2022-09-03T16:58:09.694Z,28.35
2022-09-03T17:00:49.256Z,28.22
2022-09-03T17:03:35.200Z,28.15
2022-09-03T17:06:21.670Z,28.16
2022-09-03T17:08:58.408Z,27.90
2022-09-03T17:11:39.001Z,27.89
2022-09-03T17:14:19.129Z,27.74
2022-09-03T17:16:59.443Z,27.41
2022-09-03T17:19:33.368Z,27.36
2022-09-03T17:22:10.726Z,27.18
2022-09-03T17:24:42.072Z,26.92
2022-09-03T17:27:33.111Z,26.76
2022-09-03T17:30:09.017Z,26.59
2022-09-03T17:33:17.063Z,26.46
2022-09-03T17:35:51.463Z,26.38
2022-09-03T17:38:27.523Z,26.27
2022-09-03T17:41:05.732Z,26.15
2022-09-03T17:43:42.460Z,26.03
2022-09-03T17:46:22.570Z,26.00
2022-09-03T17:48:53.573Z,25.90
2022-09-03T17:51:37.691Z,25.82
2022-09-03T17:54:08.585Z,25.74
2022-09-03T17:56:44.847Z,25.67
2022-09-03T17:59:18.930Z,25.50
2022-09-03T18:01:52.523Z,25.66
2022-09-03T18:04:35.737Z,25.53
2022-09-03T18:07:12.125Z,25.40
2022-09-03T18:09:44.114Z,25.41
2022-09-03T18:12:14.627Z,25.27
2022-09-03T18:14:50.544Z,25.25
2022-09-03T18:17:26.705Z,25.26
2022-09-03T18:20:19.684Z,25.16
2022-09-03T18:23:08.931Z,24.99
2022-09-03T18:25:56.376Z,25.09
2022-09-03T18:28:48.193Z,25.03
2022-09-03T18:31:34.714Z,25.06
2022-09-03T18:34:21.910Z,25.04
2022-09-03T18:37:08.922Z,25.00
2022-09-03T18:39:54.404Z,25.01
2022-09-03T18:42:45.204Z,24.97
2022-09-03T18:46:07.969Z,24.90
2022-09-03T18:48:47.941Z,25.00
2022-09-03T18:51:44.086Z,24.98
2022-09-03T18:55:06.247Z,24.97
2022-09-03T18:57:51.848Z,24.83
2022-09-03T19:00:37.697Z,24.73
2022-09-03T19:03:38.592Z,24.78
2022-09-03T19:06:34.628Z,24.78
2022-09-03T19:09:26.845Z,24.78
2022-09-03T19:12:24.895Z,24.68
2022-09-03T19:15:14.527Z,24.68
2022-09-03T19:18:15.672Z,24.62
2022-09-03T19:21:07.356Z,24.61
2022-09-03T19:23:53.318Z,24.56
2022-09-03T19:26:49.362Z,24.45
2022-09-03T19:29:42.373Z,24.49
2022-09-03T19:32:32.985Z,24.41
2022-09-03T19:35:31.583Z,24.33
2022-09-03T19:38:24.677Z,24.24
2022-09-03T19:41:20.148Z,24.28
2022-09-03T19:44:17.409Z,24.18
2022-09-03T19:47:08.648Z,24.21
2022-09-03T19:50:02.566Z,24.22
2022-09-03T19:52:55.075Z,24.06
2022-09-03T19:55:44.472Z,23.89
2022-09-03T19:58:43.085Z,23.95
2022-09-03T20:01:29.191Z,23.92
2022-09-03T20:04:19.744Z,23.80
2022-09-03T20:07:06.082Z,23.79
2022-09-03T20:09:55.053Z,23.77
2022-09-03T20:12:25.453Z,23.68
2022-09-03T20:14:53.495Z,23.63
2022-09-03T20:17:25.780Z,23.59
2022-09-03T20:20:08.675Z,23.53
2022-09-03T20:22:41.738Z,23.51
2022-09-03T20:25:21.088Z,23.36
2022-09-03T20:27:55.078Z,23.33
2022-09-03T20:30:24.237Z,23.23
2022-09-03T20:33:22.655Z,23.24
2022-09-03T20:36:00.332Z,23.18
2022-09-03T20:38:41.392Z,23.09
2022-09-03T20:41:16.980Z,23.00
2022-09-03T20:44:00.142Z,23.01
2022-09-03T20:46:40.231Z,22.90
2022-09-03T20:49:20.081Z,22.75
2022-09-03T20:51:53.598Z,22.72
2022-09-03T20:54:23.406Z,22.70
2022-09-03T20:57:06.554Z,22.66
2022-09-03T20:59:44.449Z,22.47
2022-09-03T21:02:21.036Z,22.20
2022-09-03T21:04:53.600Z,22.03
2022-09-03T21:07:35.125Z,21.87
2022-09-03T21:10:08.284Z,21.84
2022-09-03T21:12:42.677Z,21.88
2022-09-03T21:15:17.155Z,21.84
2022-09-03T21:17:54.244Z,21.68
2022-09-03T21:20:28.802Z,21.67
2022-09-03T21:23:12.192Z,21.52
2022-09-03T21:25:44.249Z,21.42
2022-09-03T21:28:15.525Z,21.50
2022-09-03T21:30:48.321Z,21.48
2022-09-03T21:33:21.299Z,21.56
2022-09-03T21:35:52.686Z,21.56
2022-09-03T21:38:23.853Z,21.64
2022-09-03T21:40:57.012Z,21.79
2022-09-03T21:43:28.273Z,21.73
2022-09-03T21:46:01.003Z,21.73
2022-09-03T21:48:35.661Z,21.69
2022-09-03T21:51:07.381Z,21.68
2022-09-03T21:53:43.194Z,21.65
2022-09-03T21:56:30.243Z,21.60
2022-09-03T21:59:08.915Z,21.43
2022-09-03T22:01:46.339Z,21.43
2022-09-03T22:04:14.262Z,21.46
2022-09-03T22:06:46.900Z,21.33
2022-09-03T22:09:21.347Z,21.38
2022-09-03T22:11:53.433Z,21.42
2022-09-03T22:14:21.444Z,21.43
2022-09-03T22:16:53.474Z,21.39
2022-09-03T22:19:21.400Z,21.32
2022-09-03T22:21:57.108Z,21.36
2022-09-03T22:24:36.164Z,21.23
2022-09-03T22:27:09.623Z,21.29
2022-09-03T22:29:43.976Z,21.26
2022-09-03T22:32:27.616Z,21.05
2022-09-03T22:35:23.001Z,21.06
2022-09-03T22:38:03.210Z,21.08
2022-09-03T22:40:38.255Z,21.10
2022-09-03T22:43:36.393Z,21.04
2022-09-03T22:46:07.561Z,20.97
2022-09-03T22:48:53.239Z,20.95
2022-09-03T22:51:22.030Z,20.94
2022-09-03T22:54:04.038Z,20.85
2022-09-03T22:56:35.712Z,20.91
2022-09-03T22:59:05.880Z,20.92
2022-09-03T23:01:38.044Z,20.93
2022-09-03T23:04:12.810Z,20.87
2022-09-03T23:06:50.981Z,20.87
2022-09-03T23:09:21.145Z,20.82
2022-09-03T23:11:53.483Z,20.82
2022-09-03T23:14:24.519Z,20.77
2022-09-03T23:16:55.970Z,20.72
2022-09-03T23:19:30.410Z,20.60
2022-09-03T23:22:01.379Z,20.59
2022-09-03T23:24:32.337Z,20.54
2022-09-03T23:27:04.456Z,20.33
2022-09-03T23:29:35.963Z,20.29
2022-09-03T23:32:05.282Z,20.22
2022-09-03T23:34:33.878Z,20.13
2022-09-03T23:37:35.022Z,19.93
2022-09-03T23:40:14.462Z,19.64
2022-09-03T23:43:05.538Z,19.53
2022-09-03T23:45:40.244Z,19.27
2022-09-03T23:48:18.296Z,19.23
2022-09-03T23:50:49.347Z,19.23
2022-09-03T23:53:26.798Z,19.15
2022-09-03T23:56:14.860Z,19.15
2022-09-03T23:58:56.208Z,19.13
